createdAt,value
2022-10-11T00:00:26.013Z,100454.59
2022-10-11T00:02:56.089Z,100453.50
2022-10-11T00:05:26.669Z,100451.44
2022-10-11T00:07:56.908Z,100453.25
2022-10-11T00:10:27.580Z,100452.66
2022-10-11T00:12:57.679Z,100447.09
2022-10-11T00:15:30.416Z,100446.72
2022-10-11T00:18:05.108Z,100447.56
2022-10-11T00:20:35.574Z,100447.56
2022-10-11T00:23:05.718Z,100445.19
2022-10-11T00:25:35.951Z,100440.59
2022-10-11T00:28:06.508Z,100441.31
2022-10-11T00:30:39.346Z,100436.97
2022-10-11T00:33:09.510Z,100431.09
2022-10-11T00:35:43.228Z,100428.56
2022-10-11T00:38:13.368Z,100428.56
2022-10-11T00:40:43.640Z,100429.31
2022-10-11T00:43:19.575Z,100431.97
2022-10-11T00:46:09.946Z,100433.06
2022-10-11T00:48:44.078Z,100426.66
2022-10-11T00:51:19.906Z,100432.81
2022-10-11T00:53:52.751Z,100435.44
2022-10-11T00:56:26.875Z,100429.31
2022-10-11T00:58:59.106Z,100427.38
2022-10-11T01:01:31.925Z,100429.31
2022-10-11T01:04:02.420Z,100428.47
2022-10-11T01:06:32.517Z,100424.28
2022-10-11T01:09:03.056Z,100424.28
2022-10-11T01:11:34.266Z,100421.63
2022-10-11T01:14:21.233Z,100416.56
2022-10-11T01:16:59.645Z,100418.25
2022-10-11T01:19:47.509Z,100422.16
2022-10-11T01:22:39.641Z,100425.03
2022-10-11T01:25:27.782Z,100424.22
2022-10-11T01:28:18.675Z,100423.72
2022-10-11T01:30:53.207Z,100418.34
2022-10-11T01:33:30.553Z,100417.06
2022-10-11T01:36:13.440Z,100420.91
2022-10-11T01:38:48.662Z,100416.69
2022-10-11T01:41:24.538Z,100420.81
2022-10-11T01:43:58.066Z,100416.00
2022-10-11T01:46:32.439Z,100419.16
2022-10-11T01:49:04.349Z,100428.41
2022-10-11T01:51:37.497Z,100419.75
2022-10-11T01:54:17.347Z,100427.22
2022-10-11T01:57:07.576Z,100427.34
2022-10-11T01:59:49.228Z,100417.13
2022-10-11T02:02:35.463Z,100410.88
2022-10-11T02:05:12.930Z,100412.44
2022-10-11T02:07:48.028Z,100424.81
2022-10-11T02:10:24.198Z,100425.88
2022-10-11T02:13:00.147Z,100436.22
2022-10-11T02:15:34.013Z,100429.38
2022-10-11T02:18:12.133Z,100422.16
2022-10-11T02:20:45.496Z,100424.69
2022-10-11T02:23:18.194Z,100427.34
2022-10-11T02:25:49.038Z,100419.41
2022-10-11T02:28:25.455Z,100414.00
2022-10-11T02:30:57.612Z,100406.91
2022-10-11T02:33:36.291Z,100412.19
2022-10-11T02:36:14.053Z,100412.06
2022-10-11T02:38:50.569Z,100415.56
2022-10-11T02:41:30.320Z,100407.63
2022-10-11T02:44:05.828Z,100404.97
2022-10-11T02:46:37.479Z,100408.69
2022-10-11T02:49:11.480Z,100390.34
2022-10-11T02:51:41.740Z,100406.28
2022-10-11T02:54:11.966Z,100408.34
2022-10-11T02:56:42.066Z,100412.06
2022-10-11T02:59:12.115Z,100416.16
2022-10-11T03:01:42.445Z,100414.94
2022-10-11T03:04:15.208Z,100423.38
2022-10-11T03:06:45.295Z,100414.59
2022-10-11T03:09:15.384Z,100408.34
2022-10-11T03:11:45.542Z,100416.41
2022-10-11T03:14:15.656Z,100410.25
2022-10-11T03:16:45.825Z,100408.81
2022-10-11T03:19:19.531Z,100409.66
2022-10-11T03:21:49.912Z,100414.13
2022-10-11T03:24:20.103Z,100411.59
2022-10-11T03:26:50.244Z,100411.34
2022-10-11T03:29:20.379Z,100419.16
2022-10-11T03:31:50.570Z,100424.44
2022-10-11T03:34:26.093Z,100421.69
2022-10-11T03:36:56.599Z,100425.19
2022-10-11T03:39:26.740Z,100429.38
2022-10-11T03:41:56.829Z,100428.41
2022-10-11T03:44:27.172Z,100425.53
2022-10-11T03:46:57.246Z,100425.66
2022-10-11T03:49:30.023Z,100430.72
2022-10-11T03:52:00.189Z,100431.66
2022-10-11T03:54:30.539Z,100430.22
2022-10-11T03:57:01.054Z,100427.09
2022-10-11T03:59:31.372Z,100424.69
2022-10-11T04:02:01.716Z,100425.88
2022-10-11T04:04:35.875Z,100423.59
2022-10-11T04:07:06.158Z,100428.44
2022-10-11T04:09:36.624Z,100406.66
2022-10-11T04:12:07.045Z,100426.63
2022-10-11T04:14:37.168Z,100426.88
2022-10-11T04:17:07.229Z,100426.13
2022-10-11T04:19:40.259Z,100434.06
2022-10-11T04:22:10.632Z,100430.47
2022-10-11T04:24:40.809Z,100428.56
2022-10-11T04:27:11.268Z,100431.44
2022-10-11T04:29:41.402Z,100437.56
2022-10-11T04:32:11.449Z,100439.38
2022-10-11T04:34:44.373Z,100432.16
2022-10-11T04:37:14.602Z,100416.06
2022-10-11T04:39:44.742Z,100438.06
2022-10-11T04:42:14.830Z,100431.81
2022-10-11T04:44:44.964Z,100432.66
2022-10-11T04:47:15.270Z,100426.63
2022-10-11T04:49:48.420Z,100437.09
2022-10-11T04:52:22.119Z,100434.69
2022-10-11T04:54:54.840Z,100429.88
2022-10-11T04:57:28.063Z,100437.91
2022-10-11T04:59:58.558Z,100433.00
2022-10-11T05:02:28.771Z,100444.13
2022-10-11T05:05:01.600Z,100441.97
2022-10-11T05:07:31.723Z,100446.41
2022-10-11T05:10:01.768Z,100448.94
2022-10-11T05:12:31.939Z,100451.34
2022-10-11T05:15:02.152Z,100453.66
2022-10-11T05:17:32.457Z,100453.19
2022-10-11T05:20:05.252Z,100445.28
2022-10-11T05:22:36.337Z,100461.34
2022-10-11T05:25:07.049Z,100466.41
2022-10-11T05:27:37.205Z,100463.66
2022-10-11T05:30:08.511Z,100467.63
2022-10-11T05:32:38.641Z,100464.38
2022-10-11T05:35:14.798Z,100465.34
2022-10-11T05:37:44.986Z,100473.75
2022-10-11T05:40:16.482Z,100479.53
2022-10-11T05:42:46.527Z,100475.81
2022-10-11T05:45:16.724Z,100463.56
2022-10-11T05:47:46.915Z,100485.28
2022-10-11T05:50:24.144Z,100486.25
2022-10-11T05:52:57.260Z,100486.47
2022-10-11T05:55:27.660Z,100482.63
2022-10-11T05:57:58.843Z,100497.53
2022-10-11T06:00:29.030Z,100489.44
2022-10-11T06:02:59.224Z,100497.69
2022-10-11T06:05:31.892Z,100494.28
2022-10-11T06:08:02.289Z,100495.69
2022-10-11T06:10:32.592Z,100490.75
2022-10-11T06:13:02.740Z,100487.00
2022-10-11T06:15:33.109Z,100492.84
2022-10-11T06:18:03.982Z,100492.09
2022-10-11T06:20:38.327Z,100492.31
2022-10-11T06:23:08.414Z,100493.59
2022-10-11T06:25:38.484Z,100492.69
2022-10-11T06:28:08.637Z,100502.91
2022-10-11T06:30:38.877Z,100510.66
2022-10-11T06:33:08.932Z,100506.50
2022-10-11T06:35:41.676Z,100513.91
2022-10-11T06:38:11.748Z,100522.16
2022-10-11T06:40:42.314Z,100517.06
2022-10-11T06:43:12.408Z,100516.28
2022-10-11T06:45:42.485Z,100518.13
2022-10-11T06:48:12.545Z,100525.69
2022-10-11T06:50:59.605Z,100521.06
2022-10-11T06:53:31.020Z,100525.38
2022-10-11T06:56:05.449Z,100519.91
2022-10-11T06:58:36.857Z,100526.47
2022-10-11T07:01:08.535Z,100529.63
2022-10-11T07:03:38.968Z,100528.97
2022-10-11T07:06:13.949Z,100537.41
2022-10-11T07:08:44.269Z,100531.09
2022-10-11T07:11:16.371Z,100520.56
2022-10-11T07:13:51.294Z,100533.53
2022-10-11T07:16:22.831Z,100526.94
2022-10-11T07:19:00.199Z,100524.75
2022-10-11T07:21:35.593Z,100535.09
2022-10-11T07:24:06.536Z,100534.50
2022-10-11T07:26:38.603Z,100532.09
2022-10-11T07:29:11.216Z,100524.53
2022-10-11T07:31:43.499Z,100525.97
2022-10-11T07:34:14.544Z,100529.13
2022-10-11T07:36:47.176Z,100541.19
2022-10-11T07:39:17.672Z,100538.31
2022-10-11T07:41:47.767Z,100530.06
2022-10-11T07:44:17.865Z,100531.72
2022-10-11T07:46:47.977Z,100529.22
2022-10-11T07:49:18.140Z,100529.00
2022-10-11T07:51:50.971Z,100533.50
2022-10-11T07:54:21.059Z,100526.69
2022-10-11T07:56:51.218Z,100535.91
2022-10-11T07:59:21.397Z,100536.22
2022-10-11T08:01:52.062Z,100544.75
2022-10-11T08:04:22.209Z,100536.59
2022-10-11T08:06:54.856Z,100527.94
2022-10-11T08:09:25.072Z,100535.00
2022-10-11T08:11:55.149Z,100527.31
2022-10-11T08:14:25.478Z,100531.72
2022-10-11T08:16:55.584Z,100525.69
2022-10-11T08:19:25.828Z,100533.81
2022-10-11T08:21:58.618Z,100520.34
2022-10-11T08:24:28.839Z,100525.00
2022-10-11T08:26:58.933Z,100527.81
2022-10-11T08:29:28.999Z,100526.69
2022-10-11T08:31:59.218Z,100529.13
2022-10-11T08:34:29.339Z,100534.16
2022-10-11T08:37:02.088Z,100530.88
2022-10-11T08:39:32.321Z,100530.69
2022-10-11T08:42:08.050Z,100525.56
2022-10-11T08:45:09.092Z,100532.59
2022-10-11T08:47:38.570Z,100528.88
2022-10-11T08:50:11.137Z,100526.16
2022-10-11T08:52:51.509Z,100528.97
2022-10-11T08:55:28.948Z,100529.78
2022-10-11T08:58:00.321Z,100527.84
2022-10-11T09:00:34.392Z,100540.06
2022-10-11T09:03:26.361Z,100537.00
2022-10-11T09:06:20.558Z,100531.72
2022-10-11T09:09:26.424Z,100532.66
2022-10-11T09:12:12.356Z,100532.19
2022-10-11T09:15:06.010Z,100535.34
2022-10-11T09:18:00.000Z,100534.75
2022-10-11T09:20:51.966Z,100532.84
2022-10-11T09:23:41.211Z,100537.03
2022-10-11T09:26:21.809Z,100537.03
2022-10-11T09:29:01.322Z,100533.97
2022-10-11T09:31:31.918Z,100540.41
2022-10-11T09:34:08.875Z,100537.28
2022-10-11T09:36:44.358Z,100539.44
2022-10-11T09:39:27.831Z,100540.38
2022-10-11T09:42:05.363Z,100537.00
2022-10-11T09:44:39.286Z,100530.38
2022-10-11T09:47:13.385Z,100542.31
2022-10-11T09:49:49.120Z,100534.16
2022-10-11T09:52:21.831Z,100532.81
2022-10-11T09:54:57.042Z,100533.00
2022-10-11T09:57:31.819Z,100534.13
2022-10-11T10:00:05.108Z,100530.41
2022-10-11T10:02:43.992Z,100534.50
2022-10-11T10:05:21.279Z,100528.09
2022-10-11T10:08:08.216Z,100537.66
2022-10-11T10:10:41.737Z,100533.41
2022-10-11T10:13:22.865Z,100535.78
2022-10-11T10:15:55.181Z,100533.66
2022-10-11T10:18:30.070Z,100533.59
2022-10-11T10:21:02.418Z,100528.22
2022-10-11T10:23:34.941Z,100531.22
2022-10-11T10:26:15.840Z,100535.16
2022-10-11T10:29:08.284Z,100533.88
2022-10-11T10:32:01.943Z,100527.72
2022-10-11T10:34:34.632Z,100526.34
2022-10-11T10:37:09.387Z,100530.88
2022-10-11T10:39:46.029Z,100532.22
2022-10-11T10:42:19.669Z,100531.06
2022-10-11T10:45:00.163Z,100529.88
2022-10-11T10:47:49.031Z,100525.06
2022-10-11T10:50:25.806Z,100534.13
2022-10-11T10:53:07.522Z,100525.84
2022-10-11T10:55:43.292Z,100526.81
2022-10-11T10:58:28.303Z,100526.00
2022-10-11T11:01:05.482Z,100529.69
2022-10-11T11:03:39.702Z,100518.41
2022-10-11T11:06:12.890Z,100518.97
2022-10-11T11:09:00.588Z,100523.78
2022-10-11T11:11:42.064Z,100523.88
2022-10-11T11:14:26.907Z,100508.06
2022-10-11T11:17:09.432Z,100526.34
2022-10-11T11:19:56.582Z,100514.13
2022-10-11T11:22:34.122Z,100510.94
2022-10-11T11:25:15.634Z,100517.84
2022-10-11T11:27:56.285Z,100516.19
2022-10-11T11:30:36.740Z,100515.88
2022-10-11T11:33:22.190Z,100513.94
2022-10-11T11:35:56.301Z,100504.81
2022-10-11T11:38:32.510Z,100504.72
2022-10-11T11:41:06.233Z,100504.69
2022-10-11T11:43:41.311Z,100497.34
2022-10-11T11:46:16.774Z,100495.94
2022-10-11T11:48:51.779Z,100502.03
2022-10-11T11:51:30.536Z,100498.47
2022-10-11T11:54:14.600Z,100485.28
2022-10-11T11:56:56.377Z,100485.66
2022-10-11T11:59:32.401Z,100505.59
2022-10-11T12:02:18.743Z,100492.41
2022-10-11T12:04:52.823Z,100484.47
2022-10-11T12:07:25.691Z,100491.94
2022-10-11T12:10:16.769Z,100498.53
2022-10-11T12:12:47.495Z,100488.38
2022-10-11T12:15:26.365Z,100491.31
2022-10-11T12:18:09.319Z,100483.25
2022-10-11T12:20:43.592Z,100481.84
2022-10-11T12:23:42.334Z,100477.84
2022-10-11T12:26:37.050Z,100472.94
2022-10-11T12:29:28.431Z,100474.88
2022-10-11T12:32:55.246Z,100479.63
2022-10-11T12:35:52.738Z,100480.19
2022-10-11T12:38:25.529Z,100478.25
2022-10-11T12:40:57.305Z,100480.38
2022-10-11T12:43:36.322Z,100480.38
2022-10-11T12:46:43.800Z,100481.88
2022-10-11T12:49:29.185Z,100474.25
2022-10-11T12:52:05.798Z,100471.38
2022-10-11T12:54:56.580Z,100467.31
2022-10-11T12:57:47.805Z,100466.84
2022-10-11T13:00:28.074Z,100471.13
2022-10-11T13:02:59.650Z,100463.78
2022-10-11T13:05:34.817Z,100475.44
2022-10-11T13:08:12.705Z,100468.13
2022-10-11T13:10:50.189Z,100466.41
2022-10-11T13:13:25.657Z,100471.44
2022-10-11T13:16:02.100Z,100469.88
2022-10-11T13:18:41.236Z,100473.47
2022-10-11T13:21:34.727Z,100474.75
2022-10-11T13:24:15.768Z,100467.19
2022-10-11T13:26:48.349Z,100466.34
2022-10-11T13:29:21.551Z,100464.44
2022-10-11T13:31:52.627Z,100464.72
2022-10-11T13:34:24.327Z,100467.81
2022-10-11T13:36:59.673Z,100467.03
2022-10-11T13:39:36.924Z,100462.78
2022-10-11T13:42:11.654Z,100463.47
2022-10-11T13:44:42.584Z,100463.88
2022-10-11T13:47:16.168Z,100459.28
2022-10-11T13:49:50.564Z,100463.78
2022-10-11T13:52:26.678Z,100460.75
2022-10-11T13:55:10.062Z,100463.53
2022-10-11T13:57:42.669Z,100460.59
2022-10-11T14:00:27.182Z,100468.13
2022-10-11T14:03:01.764Z,100463.28
2022-10-11T14:05:36.542Z,100467.94
2022-10-11T14:08:09.086Z,100459.28
2022-10-11T14:10:41.850Z,100465.69
2022-10-11T14:13:26.901Z,100464.34
2022-10-11T14:16:09.180Z,100461.41
2022-10-11T14:18:46.046Z,100468.50
2022-10-11T14:21:35.038Z,100470.53
2022-10-11T14:24:10.592Z,100469.81
2022-10-11T14:26:46.319Z,100468.50
2022-10-11T14:29:23.467Z,100469.38
2022-10-11T14:31:56.498Z,100457.22
2022-10-11T14:34:28.769Z,100477.84
2022-10-11T14:36:58.897Z,100472.00
2022-10-11T14:39:32.534Z,100471.69
2022-10-11T14:42:05.344Z,100478.94
2022-10-11T14:44:35.799Z,100474.09
2022-10-11T14:47:07.166Z,100468.09
2022-10-11T14:49:39.122Z,100461.38
2022-10-11T14:52:10.986Z,100475.13
2022-10-11T14:54:41.126Z,100474.81
2022-10-11T14:57:16.096Z,100469.50
2022-10-11T14:59:46.170Z,100481.22
2022-10-11T15:02:16.367Z,100476.69
2022-10-11T15:04:46.398Z,100481.72
2022-10-11T15:07:16.555Z,100480.44
2022-10-11T15:09:47.258Z,100480.28
2022-10-11T15:12:19.994Z,100479.78
2022-10-11T15:14:50.133Z,100476.59
2022-10-11T15:17:20.321Z,100476.75
2022-10-11T15:19:53.486Z,100483.63
2022-10-11T15:22:23.602Z,100486.16
2022-10-11T15:24:53.814Z,100484.31
2022-10-11T15:27:28.811Z,100480.16
2022-10-11T15:30:00.396Z,100485.00
2022-10-11T15:32:30.606Z,100483.47
2022-10-11T15:35:00.890Z,100494.50
2022-10-11T15:37:37.378Z,100489.81
2022-10-11T15:40:18.631Z,100487.47
2022-10-11T15:42:51.990Z,100501.50
2022-10-11T15:45:23.364Z,100495.50
2022-10-11T15:47:54.511Z,100498.81
2022-10-11T15:50:34.326Z,100506.34
2022-10-11T15:53:05.512Z,100495.47
2022-10-11T15:55:38.080Z,100505.84
2022-10-11T15:58:16.376Z,100493.59
2022-10-11T16:00:48.082Z,100516.81
2022-10-11T16:03:19.769Z,100508.13
2022-10-11T16:05:50.324Z,100516.78
2022-10-11T16:08:20.496Z,100515.38
2022-10-11T16:10:50.912Z,100524.34
2022-10-11T16:13:23.970Z,100526.97
2022-10-11T16:15:54.572Z,100529.28
2022-10-11T16:18:24.822Z,100524.41
2022-10-11T16:20:55.107Z,100529.09
2022-10-11T16:23:25.871Z,100531.94
2022-10-11T16:26:00.826Z,100537.28
2022-10-11T16:28:36.478Z,100542.63
2022-10-11T16:31:10.020Z,100540.59
2022-10-11T16:33:46.097Z,100543.59
2022-10-11T16:36:30.529Z,100531.19
2022-10-11T16:39:00.896Z,100547.06
2022-10-11T16:41:31.147Z,100549.03
2022-10-11T16:44:04.009Z,100548.16
2022-10-11T16:46:40.231Z,100555.47
2022-10-11T16:49:18.002Z,100556.44
2022-10-11T16:51:48.535Z,100558.78
2022-10-11T16:54:20.743Z,100562.47
2022-10-11T16:56:51.361Z,100551.41
2022-10-11T16:59:24.286Z,100559.03
2022-10-11T17:01:55.253Z,100566.66
2022-10-11T17:04:25.455Z,100566.13
2022-10-11T17:06:56.600Z,100568.16
2022-10-11T17:09:27.517Z,100550.69
2022-10-11T17:11:57.669Z,100568.75
2022-10-11T17:14:30.531Z,100573.56
2022-10-11T17:17:00.653Z,100569.66
2022-10-11T17:19:33.483Z,100569.78
2022-10-11T17:22:03.669Z,100566.59
2022-10-11T17:24:33.885Z,100561.41
2022-10-11T17:27:04.094Z,100568.75
2022-10-11T17:29:37.326Z,100565.22
2022-10-11T17:32:08.024Z,100556.75
2022-10-11T17:34:38.221Z,100569.34
2022-10-11T17:37:10.150Z,100580.31
2022-10-11T17:39:40.918Z,100573.44
2022-10-11T17:42:11.188Z,100581.75
2022-10-11T17:44:43.876Z,100574.91
2022-10-11T17:47:14.515Z,100573.66
2022-10-11T17:49:44.681Z,100573.00
2022-10-11T17:52:14.898Z,100574.97
2022-10-11T17:54:45.015Z,100578.53
2022-10-11T17:57:15.153Z,100571.97
2022-10-11T17:59:54.020Z,100568.16
2022-10-11T18:02:24.122Z,100578.84
2022-10-11T18:04:54.328Z,100575.34
2022-10-11T18:07:26.908Z,100579.97
2022-10-11T18:09:57.591Z,100575.63
2022-10-11T18:12:28.655Z,100582.94
2022-10-11T18:15:01.418Z,100577.75
2022-10-11T18:17:31.553Z,100578.88
2022-10-11T18:20:01.833Z,100579.06
2022-10-11T18:22:31.983Z,100585.25
2022-10-11T18:25:02.126Z,100580.88
2022-10-11T18:27:32.251Z,100585.25
2022-10-11T18:30:05.047Z,100591.41
2022-10-11T18:32:35.245Z,100588.19
2022-10-11T18:35:05.344Z,100594.38
2022-10-11T18:37:35.509Z,100590.03
2022-10-11T18:40:06.009Z,100599.31
2022-10-11T18:42:36.204Z,100600.44
2022-10-11T18:45:10.394Z,100594.84
2022-10-11T18:47:40.584Z,100595.00
2022-10-11T18:50:11.487Z,100588.53
2022-10-11T18:52:44.538Z,100592.72
2022-10-11T18:55:14.939Z,100593.72
2022-10-11T18:57:45.304Z,100597.38
2022-10-11T19:00:39.577Z,100590.66
2022-10-11T19:03:10.558Z,100595.97
2022-10-11T19:05:41.604Z,100599.34
2022-10-11T19:08:11.748Z,100590.34
2022-10-11T19:10:41.845Z,100596.53
2022-10-11T19:13:11.963Z,100597.38
2022-10-11T19:15:44.651Z,100599.78
2022-10-11T19:18:20.228Z,100600.31
2022-10-11T19:20:50.688Z,100607.03
2022-10-11T19:23:20.893Z,100609.00
2022-10-11T19:25:51.117Z,100606.50
2022-10-11T19:28:21.347Z,100606.63
2022-10-11T19:30:54.194Z,100604.97
2022-10-11T19:33:24.352Z,100614.09
2022-10-11T19:35:57.643Z,100615.25
2022-10-11T19:38:27.870Z,100611.19
2022-10-11T19:40:58.201Z,100606.69
2022-10-11T19:43:28.363Z,100611.88
2022-10-11T19:46:05.549Z,100613.56
2022-10-11T19:48:39.058Z,100594.66
2022-10-11T19:51:11.778Z,100604.03
2022-10-11T19:53:45.162Z,100615.53
2022-10-11T19:56:18.156Z,100620.72
2022-10-11T19:58:48.713Z,100616.53
2022-10-11T20:01:23.121Z,100616.38
2022-10-11T20:03:55.623Z,100616.13
2022-10-11T20:06:27.205Z,100614.72
2022-10-11T20:09:23.875Z,100617.53
2022-10-11T20:11:48.081Z,100622.84
2022-10-11T20:14:18.715Z,100624.41
2022-10-11T20:16:52.509Z,100638.56
2022-10-11T20:19:27.744Z,100638.41
2022-10-11T20:22:00.559Z,100624.41
2022-10-11T20:24:33.695Z,100630.72
2022-10-11T20:27:05.480Z,100628.03
2022-10-11T20:29:35.839Z,100623.56
2022-10-11T20:32:08.527Z,100622.03
2022-10-11T20:34:39.676Z,100623.00
2022-10-11T20:37:09.798Z,100619.50
2022-10-11T20:39:39.977Z,100624.69
2022-10-11T20:42:10.129Z,100623.84
2022-10-11T20:44:40.254Z,100626.50
2022-10-11T20:47:12.974Z,100630.28
2022-10-11T20:49:43.150Z,100628.47
2022-10-11T20:52:13.369Z,100630.41
2022-10-11T20:54:43.583Z,100633.81
2022-10-11T20:57:13.741Z,100628.88
2022-10-11T20:59:43.920Z,100629.72
2022-10-11T21:02:18.930Z,100625.38
2022-10-11T21:04:49.339Z,100633.34
2022-10-11T21:07:19.444Z,100626.53
2022-10-11T21:09:50.471Z,100629.19
2022-10-11T21:12:20.533Z,100627.50
2022-10-11T21:14:50.698Z,100619.94
2022-10-11T21:17:23.466Z,100627.94
2022-10-11T21:19:54.903Z,100631.44
2022-10-11T21:22:25.106Z,100632.28
2022-10-11T21:24:55.330Z,100627.78
2022-10-11T21:27:25.517Z,100633.13
2022-10-11T21:29:55.826Z,100626.97
2022-10-11T21:32:28.605Z,100638.59
2022-10-11T21:34:58.749Z,100636.06
2022-10-11T21:37:28.930Z,100636.22
2022-10-11T21:39:59.122Z,100624.72
2022-10-11T21:42:33.460Z,100629.78
2022-10-11T21:45:04.025Z,100628.09
2022-10-11T21:47:39.208Z,100634.53
2022-10-11T21:50:10.164Z,100625.00
2022-10-11T21:52:40.322Z,100626.16
2022-10-11T21:55:10.685Z,100619.44
2022-10-11T21:57:40.779Z,100623.66
2022-10-11T22:00:12.577Z,100620.16
2022-10-11T22:02:45.272Z,100617.91
2022-10-11T22:05:15.430Z,100616.94
2022-10-11T22:07:50.991Z,100628.84
2022-10-11T22:10:21.354Z,100610.66
2022-10-11T22:12:51.576Z,100620.59
2022-10-11T22:15:21.654Z,100618.09
2022-10-11T22:17:55.203Z,100627.19
2022-10-11T22:20:25.459Z,100623.69
2022-10-11T22:22:55.654Z,100620.31
2022-10-11T22:25:25.804Z,100622.16
2022-10-11T22:27:55.955Z,100626.22
2022-10-11T22:30:26.180Z,100630.69
2022-10-11T22:32:59.658Z,100624.53
2022-10-11T22:35:32.408Z,100621.16
2022-10-11T22:38:06.441Z,100626.50
2022-10-11T22:40:36.638Z,100636.28
2022-10-11T22:43:06.687Z,100623.13
2022-10-11T22:45:37.604Z,100628.59
2022-10-11T22:48:10.610Z,100622.56
2022-10-11T22:50:40.921Z,100628.91
2022-10-11T22:53:12.135Z,100620.06
2022-10-11T22:55:42.406Z,100621.06
2022-10-11T22:58:12.766Z,100629.16
2022-10-11T23:00:42.882Z,100623.97
2022-10-11T23:03:18.774Z,100624.81
2022-10-11T23:05:57.206Z,100619.63
2022-10-11T23:08:27.847Z,100620.91
2022-10-11T23:10:57.946Z,100622.72
2022-10-11T23:13:28.171Z,100626.22
2022-10-11T23:15:58.284Z,100629.16
2022-10-11T23:18:31.080Z,100629.16
2022-10-11T23:21:03.269Z,100636.16
2022-10-11T23:23:33.468Z,100635.03
2022-10-11T23:26:09.982Z,100626.06
2022-10-11T23:28:43.485Z,100633.91
2022-10-11T23:31:17.294Z,100627.88
2022-10-11T23:33:50.899Z,100629.97
2022-10-11T23:36:23.145Z,100635.16
2022-10-11T23:38:55.856Z,100633.63
2022-10-11T23:41:27.525Z,100643.41
2022-10-11T23:43:58.227Z,100648.91
2022-10-11T23:46:28.498Z,100647.34
2022-10-11T23:49:01.179Z,100644.94
2022-10-11T23:51:31.450Z,100648.56
2022-10-11T23:54:01.693Z,100635.53
2022-10-11T23:56:31.882Z,100644.91
2022-10-11T23:59:04.617Z,100647.56
